Flower, West Virginia
Current Conditions -  °F | °C
As of 10:15 AM on Wednesday 22 Oct 2014 (Local Time) from KW22 Reporting Station
Overcast Overcast  
Wind Chill: 41°   Ceiling: 700
Heat Index: 45°   Visibility: 9mi
Dew Point: 45°   Wind: 6mph
Humidity: 100%   Direction: 350°N
Pressure: 30.13"   Gusts: 17mph
Location:  38.837°N, 80.8415°W
Report Text: KW22 221415Z AUTO 35005G15KT 9SM OVC007 07/07 A3013 RMK AO2
Loading
Personal Weather Stations






























Interactive Weather Map New forecast layout! Learn more

10-Day Weather Forecast

Advertisements
Track Severe Weather on mobile